Highland, MD (20777)

10:16 PM EDT on September 26, 2016 (GMT -0400)
Highland | | Change Station

Elev 469 ft 39.18 °N, 76.96 °W | Updated 16 minutes ago

Overcast
Overcast
62.0 °F
Feels Like 62.0 °F
N
0.0
Wind Variable Wind from NNW
Gusts 0.0 mph

Today
High -- | Low -- °F
--% Chance of Precip.
Yesterday
High -- | Low -- °F
Precip. -- in
Pressure 30.04 in
Visibility 10.0 miles
Clouds Overcast 2300 ft
Dew Point 60 °F
Humidity 93%
Rainfall 0.00 in
Snow Depth Not available.
6:59 AM 6:57 PM
Waning Crescent, 15% visible
METAR KGAI 270215Z AUTO 17005KT 10SM OVC023 18/14 A3004 RMK AO1
Pressure 30.04 in
Visibility 10.0 miles
Clouds Overcast 2300 ft
Dew Point 60 °F
Humidity 93%
Rainfall 0.00 in
Snow Depth Not available.
6:59 AM 6:57 PM
Waning Crescent, 15% visible
METAR KGAI 270215Z AUTO 17005KT 10SM OVC023 18/14 A3004 RMK AO1

10-Day Weather Forecast

Almanac

Astronomy

Sep. 26, 2016 Rise Set
Actual Time
Civil Twilight
Nautical Twilight
Astronomical Twilight
Moon
Length of Visible Light
Length of Day
Tomorrow will be .
, % of the Moon is Illuminated

Today's Extremes

State Highs State Lows

Community

WunderPhotos

Upload Photos

1,942,020 photos uploaded!

WunderBlog® & News

Nearby

Air Quality

  Air Quality AQ Index Pollutant
Not available.

Snow Depth

Station Depth Elevation

Earthquake Activity

City Distance Mag. Time & Date
Minimum magnitude displayed is 2.5.

Coastal Water Temperatures

Place Temperature

Stations

Nearby Weather Stations

Station Location Temp. Windchill Dew Point Humidity Wind Precip. Elev Updated Type
                   

Watches & Warnings

There are currently no watches in effect.